Time;durP1;ratioP1;P1;durP2;ratioP2;P2;SDS_P1;SDS_P2;PMS_P1;PMS_P2;Temp;Humidity;BMP_temperature;BMP_pressure;BME280_temperature;BME280_humidity;BME280_pressure;Samples;Min_cycle;Max_cycle;Signal;HPM_P1;HPM_P2
2022/02/28 00:02:26;;;;;;;;;;;21.30;28.20;;;;;;5068647;28;19909;-45
2022/02/28 00:04:52;;;;;;;;;;;21.30;28.20;;;;;;5069265;28;19909;-47
2022/02/28 00:07:18;;;;;;;;;;;21.30;28.30;;;;;;5059628;28;19908;-44
2022/02/28 00:09:44;;;;;;;;;;;21.30;28.30;;;;;;5072616;28;19918;-49
2022/02/28 00:12:09;;;;;;;;;;;21.30;28.30;;;;;;5070770;28;20027;-51
2022/02/28 00:14:35;;;;;;;;;;;21.20;28.30;;;;;;5060495;28;19909;-51
2022/02/28 00:17:01;;;;;;;;;;;21.30;28.30;;;;;;5057438;28;19909;-50
2022/02/28 00:19:26;;;;;;;;;;;21.30;28.30;;;;;;5059187;28;19927;-53
2022/02/28 00:21:52;;;;;;;;;;;21.30;28.30;;;;;;5062496;28;19908;-53
2022/02/28 00:24:18;;;;;;;;;;;21.20;28.30;;;;;;5064006;28;19920;-50
2022/02/28 00:26:43;;;;;;;;;;;21.20;28.30;;;;;;5066835;28;19908;-50
2022/02/28 00:29:09;;;;;;;;;;;21.20;28.30;;;;;;5061127;28;19971;-52
2022/02/28 00:31:36;;;;;;;;;;;21.20;28.30;;;;;;5063539;28;19915;-47
2022/02/28 00:34:01;;;;;;;;;;;21.20;28.30;;;;;;5063234;28;19909;-51
2022/02/28 00:36:27;;;;;;;;;;;21.20;28.40;;;;;;5057719;28;19991;-52
2022/02/28 00:38:53;;;;;;;;;;;21.20;28.40;;;;;;5065440;28;19931;-52
2022/02/28 00:41:19;;;;;;;;;;;21.20;28.40;;;;;;5068013;28;19908;-48
2022/02/28 00:43:45;;;;;;;;;;;21.20;28.40;;;;;;5062803;28;19908;-49
2022/02/28 00:46:10;;;;;;;;;;;21.20;28.40;;;;;;5066625;28;19999;-49
2022/02/28 00:48:36;;;;;;;;;;;21.20;28.40;;;;;;5057368;28;19909;-47
2022/02/28 00:51:02;;;;;;;;;;;21.20;28.40;;;;;;5060472;28;20217;-49
2022/02/28 00:53:28;;;;;;;;;;;21.20;28.40;;;;;;5071472;28;19912;-51
2022/02/28 00:55:53;;;;;;;;;;;21.20;28.40;;;;;;5069454;28;19916;-52
2022/02/28 00:58:21;;;;;;;;;;;21.20;28.40;;;;;;5066159;28;19932;-52
2022/02/28 01:00:47;;;;;;;;;;;21.20;28.40;;;;;;5065559;28;19940;-51
2022/02/28 01:03:13;;;;;;;;;;;21.20;28.40;;;;;;5055507;28;19971;-47
2022/02/28 01:05:39;;;;;;;;;;;21.10;28.40;;;;;;5062741;28;20235;-49
2022/02/28 01:08:04;;;;;;;;;;;21.10;28.30;;;;;;5062171;28;19912;-46
2022/02/28 01:10:30;;;;;;;;;;;21.10;28.30;;;;;;5060243;28;20007;-48
2022/02/28 01:12:56;;;;;;;;;;;21.10;28.30;;;;;;5071907;28;19948;-47
2022/02/28 01:15:22;;;;;;;;;;;21.10;28.30;;;;;;5068811;28;19909;-48
2022/02/28 01:17:48;;;;;;;;;;;21.10;28.30;;;;;;5054612;28;19916;-46
2022/02/28 01:20:14;;;;;;;;;;;21.10;28.30;;;;;;5061852;28;20344;-49
2022/02/28 01:22:40;;;;;;;;;;;21.10;28.30;;;;;;5071371;28;19962;-49
2022/02/28 01:25:06;;;;;;;;;;;21.10;28.30;;;;;;5069020;28;19908;-47
2022/02/28 01:27:32;;;;;;;;;;;21.10;28.30;;;;;;5080971;28;19909;-46
2022/02/28 01:29:58;;;;;;;;;;;21.10;28.30;;;;;;5063650;28;19935;-51
2022/02/28 01:32:24;;;;;;;;;;;21.10;28.30;;;;;;5058764;28;19909;-48
2022/02/28 01:34:50;;;;;;;;;;;21.10;28.30;;;;;;5056633;28;19909;-49
2022/02/28 01:37:16;;;;;;;;;;;21.00;28.30;;;;;;5054759;28;19916;-46
2022/02/28 01:39:44;;;;;;;;;;;21.00;28.30;;;;;;5068675;28;19928;-46
2022/02/28 01:42:10;;;;;;;;;;;21.00;28.30;;;;;;5070837;28;19966;-50
2022/02/28 01:44:36;;;;;;;;;;;21.00;28.30;;;;;;5067841;28;19920;-50
2022/02/28 01:47:02;;;;;;;;;;;21.00;28.30;;;;;;5069353;28;19909;-55
2022/02/28 01:49:28;;;;;;;;;;;21.00;28.80;;;;;;5075047;28;19909;-54
2022/02/28 01:51:54;;;;;;;;;;;21.00;28.30;;;;;;5064352;28;20213;-52
2022/02/28 01:54:19;;;;;;;;;;;21.00;28.30;;;;;;5068094;28;20336;-52
2022/02/28 01:56:45;;;;;;;;;;;21.00;28.30;;;;;;5073151;28;19917;-52
2022/02/28 01:59:11;;;;;;;;;;;21.00;28.30;;;;;;5059064;28;19991;-51
2022/02/28 02:01:37;;;;;;;;;;;21.00;28.30;;;;;;5070304;28;19919;-48
2022/02/28 02:04:03;;;;;;;;;;;21.00;28.30;;;;;;5059217;28;19921;-54
2022/02/28 02:06:29;;;;;;;;;;;21.00;28.30;;;;;;5068576;28;20374;-48
2022/02/28 02:08:55;;;;;;;;;;;21.00;28.30;;;;;;5058405;28;20003;-53
2022/02/28 02:11:21;;;;;;;;;;;21.00;28.30;;;;;;5061164;28;19913;-48
2022/02/28 02:13:48;;;;;;;;;;;21.00;28.30;;;;;;5058115;28;19916;-48
2022/02/28 02:16:14;;;;;;;;;;;21.00;28.30;;;;;;5064266;28;20239;-50
2022/02/28 02:18:40;;;;;;;;;;;21.00;28.20;;;;;;5062597;28;20015;-49
2022/02/28 02:21:06;;;;;;;;;;;21.00;28.30;;;;;;5080132;28;20062;-50
2022/02/28 02:23:32;;;;;;;;;;;21.00;28.20;;;;;;5065509;28;20260;-48
2022/02/28 02:25:59;;;;;;;;;;;21.00;28.20;;;;;;5062797;28;19908;-52
2022/02/28 02:28:26;;;;;;;;;;;21.00;28.20;;;;;;5061208;28;19909;-49
2022/02/28 02:30:53;;;;;;;;;;;20.90;28.20;;;;;;5075934;28;19919;-48
2022/02/28 02:33:20;;;;;;;;;;;20.90;28.20;;;;;;5091247;28;19956;-55
2022/02/28 02:35:52;;;;;;;;;;;21.00;28.20;;;;;;5063891;28;19913;-49
2022/02/28 02:38:18;;;;;;;;;;;21.00;28.20;;;;;;5067495;28;19940;-54
2022/02/28 02:40:44;;;;;;;;;;;20.90;28.20;;;;;;5081920;28;19908;-51
2022/02/28 02:43:10;;;;;;;;;;;20.90;28.20;;;;;;5073818;28;19943;-46
2022/02/28 02:45:35;;;;;;;;;;;20.90;28.20;;;;;;5067356;28;19909;-50
2022/02/28 02:48:15;;;;;;;;;;;20.90;28.20;;;;;;5059839;28;19920;-51
2022/02/28 02:50:41;;;;;;;;;;;20.90;28.20;;;;;;5078918;28;19919;-48
2022/02/28 02:53:08;;;;;;;;;;;20.90;28.10;;;;;;5063826;28;19908;-49
2022/02/28 02:55:34;;;;;;;;;;;20.90;28.20;;;;;;5069707;28;21647;-49
2022/02/28 02:58:00;;;;;;;;;;;20.90;28.10;;;;;;5066348;28;20225;-45
2022/02/28 03:00:27;;;;;;;;;;;20.90;28.10;;;;;;5066644;28;19920;-51
2022/02/28 03:03:04;;;;;;;;;;;20.90;28.10;;;;;;5063954;28;20522;-50
2022/02/28 03:05:30;;;;;;;;;;;20.90;28.10;;;;;;5067312;28;20429;-48
2022/02/28 03:07:56;;;;;;;;;;;20.90;28.10;;;;;;5065554;28;19965;-47
2022/02/28 03:10:23;;;;;;;;;;;20.90;28.10;;;;;;5055945;28;20350;-53
2022/02/28 03:12:49;;;;;;;;;;;20.90;28.10;;;;;;5059235;28;19996;-48
2022/02/28 03:15:15;;;;;;;;;;;20.90;28.10;;;;;;5055312;28;20046;-48
2022/02/28 03:17:41;;;;;;;;;;;20.90;28.10;;;;;;5065641;28;19928;-49
2022/02/28 03:20:07;;;;;;;;;;;20.80;28.00;;;;;;5069122;28;20244;-47
2022/02/28 03:22:34;;;;;;;;;;;20.80;28.00;;;;;;5076650;28;19917;-49
2022/02/28 03:25:02;;;;;;;;;;;20.80;28.00;;;;;;5060794;28;19909;-49
2022/02/28 03:27:30;;;;;;;;;;;20.90;28.00;;;;;;5063858;28;20011;-51
2022/02/28 03:29:57;;;;;;;;;;;20.80;28.00;;;;;;5057874;28;19970;-47
2022/02/28 03:32:22;;;;;;;;;;;20.80;28.00;;;;;;5066154;28;19916;-47
2022/02/28 03:34:49;;;;;;;;;;;20.80;28.00;;;;;;5069732;28;20228;-49
2022/02/28 03:37:15;;;;;;;;;;;20.80;28.00;;;;;;5071961;28;19962;-55
2022/02/28 03:39:41;;;;;;;;;;;20.80;28.00;;;;;;5072833;28;19917;-48
2022/02/28 03:42:07;;;;;;;;;;;20.80;28.00;;;;;;5078869;28;19917;-48
2022/02/28 03:44:33;;;;;;;;;;;20.80;28.50;;;;;;5067860;28;19990;-53
2022/02/28 03:47:04;;;;;;;;;;;20.80;28.00;;;;;;5088893;28;19978;-54
2022/02/28 03:49:32;;;;;;;;;;;20.80;28.00;;;;;;5069073;28;19912;-47
2022/02/28 03:52:12;;;;;;;;;;;20.80;28.50;;;;;;5063908;28;19961;-47
2022/02/28 03:54:56;;;;;;;;;;;20.80;28.00;;;;;;5071427;28;19971;-46
2022/02/28 03:57:24;;;;;;;;;;;20.80;28.00;;;;;;5070188;28;20244;-47
2022/02/28 03:59:50;;;;;;;;;;;20.80;28.00;;;;;;5061231;28;19909;-49
2022/02/28 04:02:15;;;;;;;;;;;20.70;28.50;;;;;;5065372;28;20254;-52
2022/02/28 04:04:45;;;;;;;;;;;20.70;27.90;;;;;;5068056;28;20361;-51
2022/02/28 04:07:11;;;;;;;;;;;20.70;27.90;;;;;;5071214;28;19916;-52
2022/02/28 04:09:37;;;;;;;;;;;20.80;28.00;;;;;;5059419;28;20328;-48
2022/02/28 04:12:05;;;;;;;;;;;20.70;27.90;;;;;;5062217;28;20292;-55
2022/02/28 04:14:31;;;;;;;;;;;20.70;27.90;;;;;;5059829;28;19955;-52
2022/02/28 04:16:57;;;;;;;;;;;20.70;27.90;;;;;;5055950;28;19977;-51
2022/02/28 04:19:46;;;;;;;;;;;20.70;27.90;;;;;;5041163;28;19956;-47
2022/02/28 04:22:11;;;;;;;;;;;20.70;27.90;;;;;;5059506;28;19962;-50
2022/02/28 04:24:44;;;;;;;;;;;20.70;27.90;;;;;;5057282;28;20332;-47
2022/02/28 04:27:10;;;;;;;;;;;20.70;27.90;;;;;;5067637;28;20240;-50
2022/02/28 04:29:37;;;;;;;;;;;20.70;27.90;;;;;;5058872;28;19919;-51
2022/02/28 04:32:16;;;;;;;;;;;20.70;27.90;;;;;;5077164;28;19908;-56
2022/02/28 04:34:51;;;;;;;;;;;20.70;27.90;;;;;;5057861;28;19909;-52
2022/02/28 04:37:17;;;;;;;;;;;20.70;27.90;;;;;;5063143;28;20349;-50
2022/02/28 04:39:43;;;;;;;;;;;20.70;27.90;;;;;;5059274;28;19916;-51
2022/02/28 04:42:09;;;;;;;;;;;20.70;27.90;;;;;;5076875;28;19999;-49
2022/02/28 04:44:35;;;;;;;;;;;20.70;27.90;;;;;;5066829;28;19920;-55
2022/02/28 04:47:02;;;;;;;;;;;20.70;27.90;;;;;;5057146;28;19913;-48
2022/02/28 04:49:47;;;;;;;;;;;20.70;27.90;;;;;;5055207;28;19913;-49
2022/02/28 04:52:13;;;;;;;;;;;20.70;27.90;;;;;;5066548;28;19966;-52
2022/02/28 04:54:40;;;;;;;;;;;20.70;27.90;;;;;;5061087;28;20336;-48
2022/02/28 04:57:06;;;;;;;;;;;20.70;27.90;;;;;;5059802;28;19939;-51
2022/02/28 04:59:33;;;;;;;;;;;20.60;27.80;;;;;;5056525;28;20336;-49
2022/02/28 05:01:59;;;;;;;;;;;20.60;27.80;;;;;;5059539;28;20343;-49
2022/02/28 05:04:44;;;;;;;;;;;20.60;27.80;;;;;;5067978;28;19908;-48
2022/02/28 05:07:11;;;;;;;;;;;20.60;27.80;;;;;;5058281;28;20279;-49
2022/02/28 05:09:37;;;;;;;;;;;20.60;27.80;;;;;;5058020;28;19962;-48
2022/02/28 05:12:04;;;;;;;;;;;20.60;27.90;;;;;;5059954;28;19919;-52
2022/02/28 05:14:31;;;;;;;;;;;20.60;27.80;;;;;;5055728;28;20336;-50
2022/02/28 05:16:57;;;;;;;;;;;20.60;27.80;;;;;;5082103;28;19921;-49
2022/02/28 05:19:24;;;;;;;;;;;20.60;27.80;;;;;;5068640;28;20401;-50
2022/02/28 05:21:50;;;;;;;;;;;20.60;27.80;;;;;;5067488;28;19912;-50
2022/02/28 05:24:15;;;;;;;;;;;20.60;27.80;;;;;;5085860;28;19909;-52
2022/02/28 05:26:41;;;;;;;;;;;20.60;27.90;;;;;;5066017;28;20059;-50
2022/02/28 05:29:07;;;;;;;;;;;20.60;27.80;;;;;;5062942;28;20011;-52
2022/02/28 05:31:33;;;;;;;;;;;20.60;27.90;;;;;;5071855;28;20274;-51
2022/02/28 05:34:31;;;;;;;;;;;20.50;27.80;;;;;;5054664;28;19909;-52
2022/02/28 05:36:58;;;;;;;;;;;20.60;27.90;;;;;;5082712;28;20216;-45
2022/02/28 05:39:36;;;;;;;;;;;20.50;27.80;;;;;;5065480;28;19916;-49
2022/02/28 05:42:03;;;;;;;;;;;20.50;27.80;;;;;;5062550;28;19913;-47
2022/02/28 05:44:31;;;;;;;;;;;20.50;27.80;;;;;;5062549;28;19909;-49
2022/02/28 05:46:57;;;;;;;;;;;20.50;27.80;;;;;;5075585;28;20066;-51
2022/02/28 05:49:33;;;;;;;;;;;20.50;27.80;;;;;;5070216;28;20290;-49
2022/02/28 05:51:58;;;;;;;;;;;20.50;27.80;;;;;;5073354;28;19909;-52
2022/02/28 05:54:24;;;;;;;;;;;20.50;27.80;;;;;;5065553;28;20327;-53
2022/02/28 05:56:50;;;;;;;;;;;20.50;27.90;;;;;;5058462;28;19924;-49
2022/02/28 05:59:15;;;;;;;;;;;20.50;27.90;;;;;;5064187;28;19990;-48
2022/02/28 06:01:41;;;;;;;;;;;20.50;27.90;;;;;;5057187;28;21339;-49
2022/02/28 06:04:07;;;;;;;;;;;20.50;27.90;;;;;;5069303;28;19912;-49
2022/02/28 06:06:32;;;;;;;;;;;20.50;27.90;;;;;;5070865;28;19912;-52
2022/02/28 06:08:58;;;;;;;;;;;20.50;27.90;;;;;;5063114;28;19909;-49
2022/02/28 06:11:25;;;;;;;;;;;20.50;27.90;;;;;;5072141;28;19908;-52
2022/02/28 06:13:51;;;;;;;;;;;20.50;27.90;;;;;;5062782;28;20224;-48
2022/02/28 06:16:16;;;;;;;;;;;20.50;27.90;;;;;;5061764;28;19909;-42
2022/02/28 06:18:42;;;;;;;;;;;20.40;27.90;;;;;;5058435;28;19920;-47
2022/02/28 06:21:08;;;;;;;;;;;20.50;27.90;;;;;;5059809;28;20362;-47
2022/02/28 06:23:33;;;;;;;;;;;20.40;27.90;;;;;;5068573;28;20341;-49
2022/02/28 06:25:59;;;;;;;;;;;20.50;27.90;;;;;;5068019;28;20205;-49
2022/02/28 06:28:27;;;;;;;;;;;20.40;27.90;;;;;;5059675;28;19909;-52
2022/02/28 06:30:53;;;;;;;;;;;20.50;27.90;;;;;;5062452;28;20046;-52
2022/02/28 06:33:19;;;;;;;;;;;20.50;27.90;;;;;;5068587;28;20333;-52
2022/02/28 06:35:51;;;;;;;;;;;20.40;27.90;;;;;;5074156;28;19963;-47
2022/02/28 06:38:18;;;;;;;;;;;20.50;27.90;;;;;;5070648;28;19921;-47
2022/02/28 06:40:46;;;;;;;;;;;20.50;28.00;;;;;;5074025;28;19908;-46
2022/02/28 06:43:15;;;;;;;;;;;20.50;27.90;;;;;;5058839;28;19909;-60
2022/02/28 06:45:41;;;;;;;;;;;20.50;27.90;;;;;;5063094;28;19919;-47
2022/02/28 06:48:07;;;;;;;;;;;20.40;27.80;;;;;;5067247;28;20240;-45
2022/02/28 06:50:33;;;;;;;;;;;20.50;27.80;;;;;;5060909;28;19924;-52
2022/02/28 06:52:59;;;;;;;;;;;20.50;27.80;;;;;;5059686;28;19933;-47
2022/02/28 06:55:26;;;;;;;;;;;20.50;27.80;;;;;;5073541;28;19908;-51
2022/02/28 06:57:52;;;;;;;;;;;20.50;27.80;;;;;;5063621;28;20453;-48
2022/02/28 07:00:18;;;;;;;;;;;20.40;27.80;;;;;;5063927;28;19991;-47
2022/02/28 07:03:03;;;;;;;;;;;20.50;27.80;;;;;;5068106;28;19924;-48
2022/02/28 07:05:29;;;;;;;;;;;20.50;27.70;;;;;;5062899;28;19908;-49
2022/02/28 07:07:54;;;;;;;;;;;20.60;27.70;;;;;;5061841;28;19909;-48
2022/02/28 07:10:23;;;;;;;;;;;20.70;27.70;;;;;;5071100;28;20342;-48
2022/02/28 07:12:49;;;;;;;;;;;20.80;27.70;;;;;;5075300;28;20047;-48
2022/02/28 07:15:15;;;;;;;;;;;20.90;27.60;;;;;;5067823;28;20031;-48
2022/02/28 07:17:40;;;;;;;;;;;21.00;27.50;;;;;;5061681;28;19920;-48
2022/02/28 07:20:06;;;;;;;;;;;21.00;27.50;;;;;;5072843;28;20029;-53
2022/02/28 07:22:34;;;;;;;;;;;21.20;27.40;;;;;;5063695;28;19909;-58
2022/02/28 07:25:00;;;;;;;;;;;21.20;27.40;;;;;;5070541;28;19970;-45
2022/02/28 07:27:26;;;;;;;;;;;21.00;27.50;;;;;;5069664;28;20242;-59
2022/02/28 07:29:51;;;;;;;;;;;21.00;27.60;;;;;;5064178;28;19978;-48
2022/02/28 07:32:17;;;;;;;;;;;20.90;27.70;;;;;;5057170;28;19909;-48
2022/02/28 07:34:43;;;;;;;;;;;20.70;27.80;;;;;;5062566;28;19923;-44
2022/02/28 07:37:08;;;;;;;;;;;20.70;27.90;;;;;;5067661;28;19912;-47
2022/02/28 07:39:34;;;;;;;;;;;20.80;27.90;;;;;;5063865;28;20243;-47
2022/02/28 07:42:00;;;;;;;;;;;20.90;27.80;;;;;;5073782;28;20011;-46
2022/02/28 07:44:27;;;;;;;;;;;21.00;27.70;;;;;;5069791;28;20382;-49
2022/02/28 07:46:53;;;;;;;;;;;21.10;27.60;;;;;;5071252;28;19971;-48
2022/02/28 07:49:19;;;;;;;;;;;21.20;27.50;;;;;;5068593;28;20254;-46
2022/02/28 07:51:45;;;;;;;;;;;21.30;27.40;;;;;;5066179;28;19931;-46
2022/02/28 07:54:10;;;;;;;;;;;21.40;27.30;;;;;;5073858;28;19908;-49
2022/02/28 07:56:36;;;;;;;;;;;21.50;27.20;;;;;;5069154;28;19948;-47
2022/02/28 07:59:02;;;;;;;;;;;21.60;27.20;;;;;;5076210;28;19961;-50
2022/02/28 08:01:28;;;;;;;;;;;21.70;27.10;;;;;;5075758;28;19908;-50
2022/02/28 08:03:54;;;;;;;;;;;21.80;27.10;;;;;;5076207;28;19942;-49
2022/02/28 08:06:22;;;;;;;;;;;21.90;27.00;;;;;;5075185;28;19919;-47
2022/02/28 08:08:49;;;;;;;;;;;22.00;27.50;;;;;;5067461;28;19919;-49
2022/02/28 08:11:14;;;;;;;;;;;22.10;26.90;;;;;;5058696;28;20335;-49
2022/02/28 08:13:40;;;;;;;;;;;22.10;26.90;;;;;;5055969;28;19986;-48
2022/02/28 08:16:06;;;;;;;;;;;22.30;26.90;;;;;;5062269;28;19909;-44
2022/02/28 08:18:31;;;;;;;;;;;22.30;26.90;;;;;;5058100;28;19921;-51
2022/02/28 08:20:57;;;;;;;;;;;22.40;26.90;;;;;;5061575;28;20238;-49
2022/02/28 08:23:23;;;;;;;;;;;22.50;26.90;;;;;;5054634;28;19921;-55
2022/02/28 08:25:48;;;;;;;;;;;22.60;26.90;;;;;;5063997;28;20016;-48
2022/02/28 08:28:15;;;;;;;;;;;22.60;26.90;;;;;;5066005;28;19919;-47
2022/02/28 08:30:40;;;;;;;;;;;22.70;26.90;;;;;;5072037;28;19947;-50
2022/02/28 08:33:07;;;;;;;;;;;22.80;26.80;;;;;;5073536;28;19970;-49
2022/02/28 08:35:34;;;;;;;;;;;22.90;26.90;;;;;;5067764;28;19912;-48
2022/02/28 08:38:01;;;;;;;;;;;22.90;26.90;;;;;;5058414;28;20224;-47
2022/02/28 08:40:26;;;;;;;;;;;23.00;26.90;;;;;;5071509;28;19908;-49
2022/02/28 08:42:53;;;;;;;;;;;23.00;26.80;;;;;;5059920;28;19935;-51
2022/02/28 08:45:18;;;;;;;;;;;23.10;26.80;;;;;;5058711;28;19919;-48
2022/02/28 08:47:44;;;;;;;;;;;23.10;26.80;;;;;;5063401;28;19909;-50
2022/02/28 08:50:11;;;;;;;;;;;23.20;26.80;;;;;;5056397;28;19966;-49
2022/02/28 08:52:37;;;;;;;;;;;23.20;26.70;;;;;;5057533;28;19909;-47
2022/02/28 08:55:03;;;;;;;;;;;23.20;26.70;;;;;;5055009;28;20359;-50
2022/02/28 08:57:29;;;;;;;;;;;23.30;26.80;;;;;;5058316;28;19928;-47
2022/02/28 08:59:55;;;;;;;;;;;23.20;27.20;;;;;;5064550;28;20019;-49
2022/02/28 09:02:21;;;;;;;;;;;23.20;26.70;;;;;;5075047;28;19962;-50
2022/02/28 09:04:47;;;;;;;;;;;23.20;26.70;;;;;;5061382;28;19920;-53
2022/02/28 09:07:12;;;;;;;;;;;23.20;26.70;;;;;;5072139;28;19921;-49
2022/02/28 09:09:38;;;;;;;;;;;23.20;26.80;;;;;;5060316;28;19920;-46
2022/02/28 09:12:04;;;;;;;;;;;23.10;26.80;;;;;;5066926;28;19919;-45
2022/02/28 09:14:29;;;;;;;;;;;23.10;26.90;;;;;;5059766;28;21723;-51
2022/02/28 09:16:55;;;;;;;;;;;23.10;26.90;;;;;;5061581;28;19908;-48
2022/02/28 09:19:21;;;;;;;;;;;23.10;27.00;;;;;;5067724;28;20284;-53
2022/02/28 09:21:47;;;;;;;;;;;23.00;27.00;;;;;;5062782;28;19974;-47
2022/02/28 09:24:12;;;;;;;;;;;23.00;27.10;;;;;;5071249;28;19912;-52
2022/02/28 09:26:39;;;;;;;;;;;23.00;27.10;;;;;;5060712;28;20410;-52
2022/02/28 09:29:05;;;;;;;;;;;22.90;27.10;;;;;;5058183;28;19995;-51
2022/02/28 09:31:32;;;;;;;;;;;22.90;27.20;;;;;;5058423;28;19921;-53
2022/02/28 09:33:57;;;;;;;;;;;22.90;27.20;;;;;;5074207;28;19908;-52
2022/02/28 09:36:23;;;;;;;;;;;22.90;27.30;;;;;;5075363;28;19920;-51
2022/02/28 09:38:49;;;;;;;;;;;22.80;27.20;;;;;;5074825;28;19928;-56
2022/02/28 09:41:15;;;;;;;;;;;22.80;27.20;;;;;;5074976;28;19908;-49
2022/02/28 09:44:17;;;;;;;;;;;22.80;27.70;;;;;;4994542;28;19910;-45
2022/02/28 09:47:06;;;;;;;;;;;22.70;27.20;;;;;;5034930;28;19909;-45
2022/02/28 09:50:07;;;;;;;;;;;22.70;27.20;;;;;;5033046;28;19913;-46
2022/02/28 09:52:51;;;;;;;;;;;22.70;27.10;;;;;;5071630;28;20067;-45
2022/02/28 09:55:35;;;;;;;;;;;22.60;27.10;;;;;;5074508;28;19966;-51
2022/02/28 09:58:40;;;;;;;;;;;22.60;27.10;;;;;;5018903;28;19921;-51
2022/02/28 10:01:05;;;;;;;;;;;22.60;27.10;;;;;;5021989;28;20237;-53
2022/02/28 10:03:36;;;;;;;;;;;22.60;27.10;;;;;;5035731;28;19957;-50
2022/02/28 10:06:02;;;;;;;;;;;22.60;27.00;;;;;;5073599;28;20002;-49
2022/02/28 10:08:48;;;;;;;;;;;22.60;27.00;;;;;;5076864;28;19937;-48
2022/02/28 10:11:24;;;;;;;;;;;22.50;26.90;;;;;;5073498;28;19946;-45
2022/02/28 10:13:51;;;;;;;;;;;22.60;26.90;;;;;;5076627;28;19935;-49
2022/02/28 10:16:30;;;;;;;;;;;22.50;26.80;;;;;;5076813;28;19943;-47
2022/02/28 10:18:55;;;;;;;;;;;22.50;26.80;;;;;;5075644;28;19913;-46
2022/02/28 10:21:34;;;;;;;;;;;22.50;26.80;;;;;;5076965;28;19909;-46
2022/02/28 10:23:59;;;;;;;;;;;22.50;26.70;;;;;;5075134;28;19952;-48
2022/02/28 10:26:39;;;;;;;;;;;22.50;26.70;;;;;;5057453;28;19915;-46
2022/02/28 10:29:42;;;;;;;;;;;22.40;26.70;;;;;;5019911;28;19909;-46
2022/02/28 10:32:27;;;;;;;;;;;22.40;26.70;;;;;;5055753;28;19915;-46
2022/02/28 10:38:26;;;;;;;;;;;22.40;26.60;;;;;;5057044;28;19953;-46
2022/02/28 10:40:53;;;;;;;;;;;22.30;26.50;;;;;;5074809;28;19913;-45
2022/02/28 10:43:23;;;;;;;;;;;22.30;26.50;;;;;;5075802;28;19924;-48
2022/02/28 10:45:53;;;;;;;;;;;22.30;26.40;;;;;;5073422;28;19913;-50
2022/02/28 10:48:21;;;;;;;;;;;22.30;26.40;;;;;;5077715;28;19908;-48
2022/02/28 10:50:50;;;;;;;;;;;22.30;26.40;;;;;;5076350;28;20235;-45
2022/02/28 10:53:19;;;;;;;;;;;22.30;26.30;;;;;;5077347;28;19909;-46
2022/02/28 10:55:46;;;;;;;;;;;22.30;26.30;;;;;;5074961;28;19916;-46
2022/02/28 10:58:14;;;;;;;;;;;22.30;26.30;;;;;;5065286;28;20358;-48
2022/02/28 11:00:54;;;;;;;;;;;22.30;26.30;;;;;;5057332;28;19920;-46
2022/02/28 11:03:20;;;;;;;;;;;22.30;26.20;;;;;;5064933;28;20345;-47
2022/02/28 11:05:49;;;;;;;;;;;22.20;26.20;;;;;;5066613;28;19909;-43
2022/02/28 11:08:19;;;;;;;;;;;22.20;26.10;;;;;;5057177;28;19975;-48
2022/02/28 11:10:45;;;;;;;;;;;22.20;26.10;;;;;;5044982;28;20354;-44
2022/02/28 11:13:11;;;;;;;;;;;22.20;26.10;;;;;;5037101;28;19917;-50
2022/02/28 11:15:36;;;;;;;;;;;22.20;26.10;;;;;;5046515;28;19905;-49
2022/02/28 11:18:02;;;;;;;;;;;22.20;26.10;;;;;;5056545;28;19913;-47
2022/02/28 11:20:28;;;;;;;;;;;22.20;26.10;;;;;;5047672;28;19924;-45
2022/02/28 11:22:53;;;;;;;;;;;22.10;26.00;;;;;;5039630;28;19924;-49
2022/02/28 11:25:20;;;;;;;;;;;22.10;26.00;;;;;;5052075;28;19913;-48
2022/02/28 11:27:47;;;;;;;;;;;22.10;26.00;;;;;;5036064;28;20236;-48
2022/02/28 11:30:16;;;;;;;;;;;22.10;26.00;;;;;;5038926;28;19971;-49
2022/02/28 11:32:43;;;;;;;;;;;22.10;26.00;;;;;;5036202;28;19944;-44
2022/02/28 11:35:28;;;;;;;;;;;22.10;26.00;;;;;;5041697;28;20221;-45
2022/02/28 11:37:54;;;;;;;;;;;22.10;26.00;;;;;;5029443;28;19970;-47
2022/02/28 11:40:20;;;;;;;;;;;22.10;26.00;;;;;;5039657;28;19912;-50
2022/02/28 11:43:07;;;;;;;;;;;22.10;26.00;;;;;;5043019;28;19909;-51
2022/02/28 11:45:33;;;;;;;;;;;22.10;26.10;;;;;;5036524;28;19963;-49
2022/02/28 11:48:17;;;;;;;;;;;22.10;26.10;;;;;;5038134;28;19952;-47
2022/02/28 11:50:49;;;;;;;;;;;22.10;26.10;;;;;;5042340;28;19917;-47
2022/02/28 11:53:34;;;;;;;;;;;22.10;26.10;;;;;;5040401;28;19921;-46
2022/02/28 11:56:01;;;;;;;;;;;22.10;26.10;;;;;;5055219;28;20332;-48
2022/02/28 11:58:27;;;;;;;;;;;22.10;26.10;;;;;;5066659;28;19971;-49
2022/02/28 12:01:07;;;;;;;;;;;22.10;26.10;;;;;;5068304;28;20028;-48
2022/02/28 12:03:36;;;;;;;;;;;22.10;26.10;;;;;;5068348;28;20619;-51
2022/02/28 12:06:03;;;;;;;;;;;22.10;26.10;;;;;;5067372;28;19975;-47
2022/02/28 12:08:39;;;;;;;;;;;22.10;26.00;;;;;;5066547;28;19921;-48
2022/02/28 12:11:17;;;;;;;;;;;22.00;26.00;;;;;;5068864;28;20251;-47
2022/02/28 12:13:57;;;;;;;;;;;22.00;26.00;;;;;;5069605;28;19912;-55
2022/02/28 12:19:26;;;;;;;;;;;22.00;26.00;;;;;;5072403;28;20278;-44
2022/02/28 12:22:01;;;;;;;;;;;22.00;26.00;;;;;;5069063;28;20331;-51
2022/02/28 12:24:45;;;;;;;;;;;21.90;25.90;;;;;;5066162;28;19966;-48
2022/02/28 12:27:12;;;;;;;;;;;22.00;26.50;;;;;;5064627;28;19909;-53
2022/02/28 12:29:37;;;;;;;;;;;21.90;26.00;;;;;;5065724;28;19908;-48
2022/02/28 12:32:04;;;;;;;;;;;22.00;26.00;;;;;;5065749;28;20382;-56
2022/02/28 12:34:34;;;;;;;;;;;21.90;25.90;;;;;;5064715;28;20229;-46
2022/02/28 12:37:00;;;;;;;;;;;21.90;25.90;;;;;;5064810;28;20340;-51
2022/02/28 12:39:26;;;;;;;;;;;21.90;25.90;;;;;;5068705;28;19917;-54
2022/02/28 12:41:56;;;;;;;;;;;21.90;25.90;;;;;;5066696;28;19919;-50
2022/02/28 12:44:22;;;;;;;;;;;21.90;25.80;;;;;;5068510;28;19978;-49
2022/02/28 12:46:51;;;;;;;;;;;21.90;25.80;;;;;;5067565;28;20331;-51
2022/02/28 12:49:18;;;;;;;;;;;21.90;25.80;;;;;;5065410;28;19908;-57
2022/02/28 12:51:44;;;;;;;;;;;21.90;25.70;;;;;;5065408;28;19952;-52
2022/02/28 12:54:11;;;;;;;;;;;21.90;25.70;;;;;;5062329;28;19981;-59
2022/02/28 12:56:39;;;;;;;;;;;21.90;25.70;;;;;;5064915;28;20357;-55
2022/02/28 12:59:07;;;;;;;;;;;21.90;25.70;;;;;;5063534;28;21736;-57
2022/02/28 13:01:33;;;;;;;;;;;21.90;25.70;;;;;;5067431;28;19912;-51
2022/02/28 13:04:00;;;;;;;;;;;21.80;25.70;;;;;;5067214;28;19918;-53
2022/02/28 13:06:30;;;;;;;;;;;21.90;25.90;;;;;;5068194;28;19962;-51
2022/02/28 13:09:12;;;;;;;;;;;21.80;25.90;;;;;;5068971;28;19986;-46
2022/02/28 13:11:54;;;;;;;;;;;21.80;25.90;;;;;;5073734;28;19916;-50
2022/02/28 13:14:21;;;;;;;;;;;21.90;26.00;;;;;;5068785;28;19912;-47
2022/02/28 13:16:51;;;;;;;;;;;21.90;26.00;;;;;;5069988;28;19995;-50
2022/02/28 13:19:18;;;;;;;;;;;22.00;26.10;;;;;;5073298;28;19927;-48
2022/02/28 13:21:50;;;;;;;;;;;22.00;26.10;;;;;;5073277;28;19913;-46
2022/02/28 13:24:16;;;;;;;;;;;22.10;26.10;;;;;;5070497;28;19908;-43
2022/02/28 13:26:42;;;;;;;;;;;22.10;26.00;;;;;;5071602;28;19908;-48
2022/02/28 13:29:09;;;;;;;;;;;22.20;26.00;;;;;;5069890;28;20345;-50
2022/02/28 13:31:35;;;;;;;;;;;22.20;25.90;;;;;;5068776;28;19913;-51
2022/02/28 13:34:02;;;;;;;;;;;22.20;25.80;;;;;;5072625;28;19908;-46
2022/02/28 13:36:32;;;;;;;;;;;22.30;25.80;;;;;;5070644;28;19925;-50
2022/02/28 13:38:57;;;;;;;;;;;22.30;25.70;;;;;;5072692;28;19969;-52
2022/02/28 13:41:25;;;;;;;;;;;22.30;25.70;;;;;;5074171;28;19916;-45
2022/02/28 13:43:51;;;;;;;;;;;22.40;25.70;;;;;;5073450;28;21443;-45
2022/02/28 13:46:17;;;;;;;;;;;22.40;25.60;;;;;;5069663;28;19932;-46
2022/02/28 13:48:52;;;;;;;;;;;22.40;25.60;;;;;;5073466;28;19920;-54
2022/02/28 13:51:18;;;;;;;;;;;22.50;25.60;;;;;;5070138;28;19995;-43
2022/02/28 13:53:45;;;;;;;;;;;22.50;25.60;;;;;;5074750;28;20297;-50
2022/02/28 13:56:28;;;;;;;;;;;22.50;25.60;;;;;;5077702;28;19916;-53
2022/02/28 13:58:53;;;;;;;;;;;22.50;25.50;;;;;;5075818;28;20289;-52
2022/02/28 14:01:19;;;;;;;;;;;22.40;25.50;;;;;;5076788;28;19908;-46
2022/02/28 14:03:58;;;;;;;;;;;22.50;25.50;;;;;;5065607;28;19909;-46
2022/02/28 14:06:23;;;;;;;;;;;22.40;25.40;;;;;;5058737;28;19912;-47
2022/02/28 14:08:50;;;;;;;;;;;22.40;25.40;;;;;;5076179;28;20201;-48
2022/02/28 14:11:25;;;;;;;;;;;22.40;25.40;;;;;;5062402;28;20335;-46
2022/02/28 14:13:52;;;;;;;;;;;22.40;25.30;;;;;;5076159;28;19908;-45
2022/02/28 14:16:22;;;;;;;;;;;22.40;25.30;;;;;;5075775;28;20544;-46
2022/02/28 14:19:01;;;;;;;;;;;22.30;25.20;;;;;;5076009;28;19916;-45
2022/02/28 14:21:29;;;;;;;;;;;22.40;25.30;;;;;;5075651;28;19909;-53
2022/02/28 14:24:19;;;;;;;;;;;22.30;25.30;;;;;;5058065;28;19919;-50
2022/02/28 14:27:03;;;;;;;;;;;22.30;25.20;;;;;;5059445;28;19925;-45
2022/02/28 14:29:38;;;;;;;;;;;22.30;25.10;;;;;;5058737;28;20024;-51
2022/02/28 14:32:22;;;;;;;;;;;22.30;25.10;;;;;;5073133;28;19909;-45